Meeting de Noël

Départementale

NÎMES

Du Vendredi 18 Decembre 2015 au Dimanche 20 Decembre 2015

Bassin de 50m

100 Nage Libre Dames

Séries

Nom Année Club Pays Temps Points Niv.
1 BONNET Charlotte 1995 OLYMPIC NICE NATATION FRA 0:55:66 1327
2 SANTAMANS Anna 1993 OLYMPIC NICE NATATION FRA 0:55:75 1324
3 TOUATI Assia 1995 DAUPHINS TOULOUSE OEC FRA 0:56:03 1315
4 HACHE Cloé 1997 OLYMPIC NICE NATATION FRA 0:56:15 1311
5 MARTIN Anouchka 1993 CN MARSEILLE FRA 0:57:34 1271
6 WATTEL Marie 1997 OLYMPIC NICE NATATION FRA 0:57:76 1257
7 VIGUIER Manon 1998 OLYMPIC NICE NATATION FRA 0:58:03 1248
8 MABBOUX Isabelle 1992 AC BOULOGNE-BILLANCOURT FRA 0:58:08 1247
9 COSTE Julie 1998 DAUPHINS TOULOUSE OEC FRA 0:58:66 1228
10 BLANC Ludivine 1995 MONTPELLIER ANUC FRA 0:59:07 1214
11 MARCEL Roxanne 1999 CN ANTIBES FRA 0:59:13 1212
12 MAHIEU Pauline 1999 US ST-ANDRÉ FRA 0:59:22 1209
13 PICAULT Solweig 2000 CANET 66 NATATION FRA 0:59:27 1208
14 PETIT Cassandra 1995 CN ANTIBES FRA 0:59:58 1198
15 ABERT Marion 1993 DAUPHINS TOULOUSE OEC FRA 0:59:60 1197
16 LETANG Maria-elena 1993 CLUB DES NAGEURS DE PARIS FRA 0:59:65 1196
17 LECANU Maëlle 1999 STADE FRANÇAIS O COURBEVOIE FRA 0:59:74 1193
18 VAQUETTE Mathilde 1999 CANET 66 NATATION FRA 1:00:23 1177
19 GREMILLON Louise 2000 CN BERRE MIXTES FRA 1:00:56 1166
20 DEL'HOMME Laurine 1997 CLUB DES NAGEURS DE PARIS FRA 1:00:57 1166
21 HAAG Lauriane 1994 DAUPHINS TOULOUSE OEC FRA 1:00:60 1165
22 BLANCHARD Morgane 1997 OLYMPIC NICE NATATION FRA 1:00:61 1165
23 PUTRI KRISDEWANTI Sagita 1998 CN BERRE MIXTES FRA 1:00:72 1161
24 BAESEL Maëlle 1999 DAUPHINS TOULOUSE OEC FRA 1:00:82 1158
25 GRUGET Paloma 1996 CN AVIGNON FRA 1:00:85 1157
26 SGARAMELLA Clara 2001 DAUPHINS D'ANNECY FRA 1:00:90 1156
27 BRUGGER Angelique 2000 CN BERRE MIXTES FRA 1:00:92 1155
28 MELA GUSTANJIANI Kathriana 1992 CN BERRE MIXTES FRA 1:01:07 1150
29 JULIEN Camille 1997 PAYS D'AIX NATATION FRA 1:01:09 1150
30 TOUILI Lila 2000 CANET 66 NATATION FRA 1:01:42 1139
31 LALEVEE Claire 2000 CN ANTIBES FRA 1:01:53 1136
32 CARTIER Julie 1986 CN GAP FRA 1:01:93 1123
33 DESJARDINS Léa 2001 CN BERRE MIXTES FRA 1:01:98 1122
34 GALLEGO Solène 1995 DAUPHINS TOULOUSE OEC FRA 1:02:00 1121
35 LORANDI Elodie 1989 CN ANTIBES FRA 1:02:42 1108
36 HENRAS-MAROUF Alix 2001 CN BERRE MIXTES FRA 1:02:50 1106
37 RODRIGUEZ Ilona 2001 CN BERRE MIXTES FRA 1:02:53 1105
38 PERRENOUD Léane 1996 CN BERRE MIXTES FRA 1:02:68 1100
39 DUBARRY Chiara 2001 CN BERRE MIXTES FRA 1:03:19 1084
40 STAUFFER Zelie 2000 CN BERRE MIXTES FRA 1:03:39 1078
41 FIOUX Lucie 2002 CHAMALIERES-MONTFERRAND N FRA 1:03:60 1072
42 SIEGEL Tamara 2001 STADE ST-LAURENT-DU-VAR NAT FRA 1:03:78 1066
43 DA SILVA Romane 2002 CN BERRE MIXTES FRA 1:03:80 1066
44 GORGERAT Neis 2003 CN BERRE MIXTES FRA 1:04:50 1045
45 MOINE PICARD Emilie 2000 STADE OLYMPIQUE CHAMBÉRY FRA 1:04:86 1034
46 PERRENOUD Audrène 1996 CN BERRE MIXTES FRA 1:05:13 1026
47 HILBRINK Maite 2003 CN BERRE MIXTES FRA 1:05:90 1003
48 DIEBOLD Lea 1999 CN BERRE MIXTES FRA 1:06:67 980
49 RAY Marine 1999 CN BERRE MIXTES FRA 1:06:87 975
50 HAMM Axelle 1999 CN BERRE MIXTES FRA 1:06:93 973
51 DA CONCEICAO Emma 2000 DAUPHINS D'ANNECY FRA 1:06:98 971
52 SCHMID Albane 1999 CN BERRE MIXTES FRA 1:08:42 930
53 BLANC Amelie 2003 CN BERRE MIXTES FRA 1:10:84 863
54 STAEMPFLI Regina 2002 CN BERRE MIXTES FRA 1:12:56 816
55 TABET Lyna 2002 CN ANTIBES FRA - Disq.

Finale A

Nom Année Club Pays Temps Points Niv.
1 BONNET Charlotte 1995 OLYMPIC NICE NATATION FRA 0:54:75 1358
2 SANTAMANS Anna 1993 OLYMPIC NICE NATATION FRA 0:55:05 1348
3 HACHE Cloé 1997 OLYMPIC NICE NATATION FRA 0:56:07 1313
4 TOUATI Assia 1995 DAUPHINS TOULOUSE OEC FRA 0:56:12 1312
5 WATTEL Marie 1997 OLYMPIC NICE NATATION FRA 0:56:47 1300
6 MABBOUX Isabelle 1992 AC BOULOGNE-BILLANCOURT FRA 0:56:76 1290
7 VIGUIER Manon 1998 OLYMPIC NICE NATATION FRA 0:57:19 1276
8 MARTIN Anouchka 1993 CN MARSEILLE FRA 0:57:74 1258
9 BLANC Ludivine 1995 MONTPELLIER ANUC FRA 0:58:17 1244
10 COSTE Julie 1998 DAUPHINS TOULOUSE OEC FRA 0:58:46 1234

Finale B

Nom Année Club Pays Temps Points Niv.
1 HAAG Lauriane 1994 DAUPHINS TOULOUSE OEC FRA 0:58:14 1245
2 PICAULT Solweig 2000 CANET 66 NATATION FRA 0:58:33 1238
3 DEL'HOMME Laurine 1997 CLUB DES NAGEURS DE PARIS FRA 0:58:39 1236
4 PETIT Cassandra 1995 CN ANTIBES FRA 0:58:64 1228
5 ABERT Marion 1993 DAUPHINS TOULOUSE OEC FRA 0:58:66 1228
6 MARCEL Roxanne 1999 CN ANTIBES FRA 0:58:81 1223
7 VAQUETTE Mathilde 1999 CANET 66 NATATION FRA 0:59:10 1213
8 LETANG Maria-elena 1993 CLUB DES NAGEURS DE PARIS FRA 0:59:10 1213
9 GREMILLON Louise 2000 CN BERRE MIXTES FRA 0:59:81 1190
10 LECANU Maëlle 1999 STADE FRANÇAIS O COURBEVOIE FRA 0:59:94 1186

Finale C

Nom Année Club Pays Temps Points Niv.
1 BAESEL Maëlle 1999 DAUPHINS TOULOUSE OEC FRA 0:59:56 1198
2 SGARAMELLA Clara 2001 DAUPHINS D'ANNECY FRA 0:59:57 1198
3 LALEVEE Claire 2000 CN ANTIBES FRA 1:01:04 1151
4 RODRIGUEZ Ilona 2001 CN BERRE MIXTES FRA 1:01:36 1141
5 BRUGGER Angelique 2000 CN BERRE MIXTES FRA 1:01:37 1141
6 HENRAS-MAROUF Alix 2001 CN BERRE MIXTES FRA 1:02:17 1116
7 DESJARDINS Léa 2001 CN BERRE MIXTES FRA 1:02:80 1096
8 STAUFFER Zelie 2000 CN BERRE MIXTES FRA 1:03:45 1076
9 DUBARRY Chiara 2001 CN BERRE MIXTES FRA 1:03:89 1063
10 FIOUX Lucie 2002 CHAMALIERES-MONTFERRAND N FRA 1:04:23 1053